Aérodrome :
LOGIN :

S'inscrire | Disclaimer

   EN    FR    IT 

 










Légende :    VFR   VFR Marginal   IFR   IFR Intensif   IFR Très Intensif
Visi : 
Plafond : 
>= 8 km
>= 3000ft
5 à 8 km
1000 à 3000 ft
1500m à 5 km
500 à 1000 ft
800 à 1500m
200 à 500 ft
< 800m
< 200 ft
Symboles :   Orages  Brouillard  Fortes neiges  Fortes précipitations  Vent > 20 kt
SIGMETs :   Divers  Orages  Givrage  Turbulence  Onde Orograph.  Cendres Volcan.







- Altitude de l'aérodrome : 1548 ft


LKNA - Náměšť Air Base

DERNIER METAR :
  • 191200Z 07006KT 9999 FEW050CB BKN120 24/13 Q1016 NOSIG RMK BLU BLU

METARs EXPIRÉS :
  • 191114Z 06006KT 9999 VCTS FEW012 SCT050CB SCT070 21/12 Q1016 RMK BLU
  • 191100Z 05008KT 020V100 6000 -TSRA SCT050CB SCT075 23/11 Q1016 NOSIG RMK WHT WHT
  • 191048Z 08007KT 040V140 9999 -TSRA SCT050 SCT075 24/11 Q1016 RMK BLU
  • 191040Z 14008KT 110V170 9999 TS SCT050CB SCT090 24/12 Q1016 RMK BLU
  • 191032Z 15009KT 9999 VCTS SCT050CB SCT090 24/12 Q1016 RMK BLU
  • 191000Z VRB04KT 9999 TS SCT044CB SCT100 24/11 Q1016 NOSIG RMK BLU BLU

TAF TAF LKNA
Valide du 19 à 12h jusqu'au 20 à 12h UTC


191100Z 1912/2012 26007KT CAVOK
TEMPO 1912/1920 SHRA SCT040TCU
PROB40
TEMPO 1912/1918 5000 TSRA BKN035CB
BECMG 1920/1922 VRB02KT
Pas de NOTAMs connus pour ce terrain.



MET'MAP, la Météo Aéronautique d'un coup d'oeil ! - Copyright ORBIFLY Décembre 2007 - Disclaimer

ORBIFLY MET'MAP TEAM :

Programmation & Développement : Alexandra Zaïnal
Conception & Développement : Baudouin d'Aumeries
Co-Programmation & Développement : Marc-Olivier Méhu
Soutien technique & logistique : Manuel Goepfert

Contact : metmap@orbifly.com




SOURCES & CREDITS :

   NOAA